createdAt,value
2019-05-12T00:02:04.882Z,90.22
2019-05-12T00:04:31.932Z,90.65
2019-05-12T00:06:59.307Z,90.63
2019-05-12T00:09:28.299Z,90.67
2019-05-12T00:11:55.878Z,90.96
2019-05-12T00:14:23.210Z,90.95
2019-05-12T00:16:50.567Z,91.00
2019-05-12T00:19:18.020Z,90.76
2019-05-12T00:21:45.074Z,89.94
2019-05-12T00:24:12.118Z,90.45
2019-05-12T00:26:39.622Z,90.47
2019-05-12T00:29:07.683Z,90.41
2019-05-12T00:31:35.210Z,90.24
2019-05-12T00:34:02.332Z,90.94
2019-05-12T00:36:29.446Z,90.96
2019-05-12T00:38:58.037Z,90.93
2019-05-12T00:41:25.417Z,90.91
2019-05-12T00:43:52.700Z,90.56
2019-05-12T00:46:19.997Z,90.35
2019-05-12T00:48:48.261Z,90.59
2019-05-12T00:51:15.320Z,90.73
2019-05-12T00:53:43.528Z,91.18
2019-05-12T00:56:10.572Z,90.96
2019-05-12T00:58:38.265Z,91.34
2019-05-12T01:01:07.957Z,91.12
2019-05-12T01:03:34.113Z,91.44
2019-05-12T01:06:01.153Z,91.01
2019-05-12T01:08:28.225Z,90.78
2019-05-12T01:10:55.494Z,91.49
2019-05-12T01:13:22.545Z,91.09
2019-05-12T01:15:49.830Z,91.22
2019-05-12T01:18:18.120Z,90.72
2019-05-12T01:20:47.775Z,90.77
2019-05-12T01:23:14.134Z,91.29
2019-05-12T01:25:41.173Z,91.32
2019-05-12T01:28:08.440Z,90.44
2019-05-12T01:30:35.523Z,91.11
2019-05-12T01:33:02.639Z,90.93
2019-05-12T01:35:29.923Z,91.26
2019-05-12T01:38:01.125Z,90.57
2019-05-12T01:40:28.670Z,90.97
2019-05-12T01:42:58.225Z,89.40
2019-05-12T01:45:24.820Z,89.18
2019-05-12T01:47:52.120Z,90.06
2019-05-12T01:50:19.178Z,89.75
2019-05-12T01:52:47.879Z,90.15
2019-05-12T01:55:15.235Z,90.02
2019-05-12T01:57:42.276Z,89.92
2019-05-12T02:00:09.533Z,89.97
2019-05-12T02:02:38.526Z,90.45
2019-05-12T02:05:06.177Z,89.76
2019-05-12T02:07:34.041Z,90.17
2019-05-12T02:10:01.389Z,90.47
2019-05-12T02:12:28.881Z,90.58
2019-05-12T02:14:56.139Z,90.73
2019-05-12T02:17:23.421Z,90.85
2019-05-12T02:19:50.714Z,90.73
2019-05-12T02:22:18.976Z,90.81
2019-05-12T02:24:47.897Z,90.65
2019-05-12T02:27:15.155Z,90.95
2019-05-12T02:29:44.134Z,90.51
2019-05-12T02:32:11.411Z,90.75
2019-05-12T02:34:38.463Z,90.66
2019-05-12T02:37:05.825Z,90.28
2019-05-12T02:39:35.277Z,90.42
2019-05-12T02:42:05.163Z,90.51
2019-05-12T02:44:31.163Z,90.84
2019-05-12T02:46:58.454Z,91.00
2019-05-12T02:49:25.562Z,90.64
2019-05-12T02:51:54.699Z,90.95
2019-05-12T02:54:21.329Z,90.69
2019-05-12T02:56:48.613Z,90.59
2019-05-12T02:59:16.451Z,90.02
2019-05-12T03:01:45.218Z,90.51
2019-05-12T03:04:14.495Z,90.71
2019-05-12T03:06:44.399Z,90.77
2019-05-12T03:09:10.033Z,90.94
2019-05-12T03:11:37.325Z,91.13
2019-05-12T03:14:04.348Z,91.26
2019-05-12T03:16:34.631Z,91.33
2019-05-12T03:19:04.526Z,91.38
2019-05-12T03:21:30.337Z,91.31
2019-05-12T03:23:57.624Z,91.30
2019-05-12T03:26:25.001Z,91.34
2019-05-12T03:28:55.450Z,91.38
2019-05-12T03:31:25.626Z,91.45
2019-05-12T03:33:53.072Z,91.55
2019-05-12T03:36:18.989Z,91.55
2019-05-12T03:38:46.005Z,91.26
2019-05-12T03:41:14.705Z,91.38
2019-05-12T03:43:44.871Z,91.20
2019-05-12T03:46:11.309Z,91.40
2019-05-12T03:48:38.337Z,91.31
2019-05-12T03:51:05.919Z,91.23
2019-05-12T03:53:35.196Z,91.28
2019-05-12T03:56:04.370Z,91.23
2019-05-12T03:58:49.483Z,91.25
2019-05-12T04:01:16.812Z,90.36
2019-05-12T04:03:45.086Z,90.79
2019-05-12T04:06:15.397Z,90.88
2019-05-12T04:08:41.492Z,91.00
2019-05-12T04:11:08.900Z,91.06
2019-05-12T04:13:36.255Z,91.13
2019-05-12T04:16:04.873Z,91.14
2019-05-12T04:18:34.979Z,91.21
2019-05-12T04:21:05.177Z,91.22
2019-05-12T04:23:30.605Z,91.20
2019-05-12T04:26:06.962Z,91.14
2019-05-12T04:28:26.686Z,91.22
2019-05-12T04:30:54.501Z,91.22
2019-05-12T04:33:25.421Z,91.35
2019-05-12T04:35:51.052Z,91.40
2019-05-12T04:38:18.425Z,91.34
2019-05-12T04:40:45.690Z,91.47
2019-05-12T04:43:14.658Z,91.86
2019-05-12T04:45:44.787Z,91.96
2019-05-12T04:48:15.004Z,92.01
2019-05-12T04:50:40.814Z,92.12
2019-05-12T04:53:08.187Z,92.11
2019-05-12T04:55:35.930Z,92.29
2019-05-12T04:58:04.465Z,92.12
2019-05-12T05:00:34.815Z,92.09
2019-05-12T05:03:01.299Z,92.12
2019-05-12T05:05:28.345Z,92.13
2019-05-12T05:07:56.806Z,91.71
2019-05-12T05:10:24.913Z,91.73
2019-05-12T05:12:54.120Z,91.71
2019-05-12T05:15:24.718Z,91.71
2019-05-12T05:17:50.488Z,91.62
2019-05-12T05:20:17.519Z,91.05
2019-05-12T05:22:44.570Z,90.78
2019-05-12T05:25:14.236Z,90.95
2019-05-12T05:27:40.973Z,89.54
2019-05-12T05:30:08.329Z,89.41
2019-05-12T05:32:35.702Z,89.07
2019-05-12T05:35:03.953Z,87.72
2019-05-12T05:37:39.617Z,86.44
2019-05-12T05:40:00.562Z,83.73
2019-05-12T05:42:32.680Z,85.46
2019-05-12T05:44:56.716Z,85.40
2019-05-12T05:47:25.482Z,85.76
2019-05-12T05:49:53.996Z,85.56
2019-05-12T05:52:24.641Z,85.45
2019-05-12T05:54:53.140Z,84.83
2019-05-12T05:57:20.061Z,85.78
2019-05-12T05:59:48.515Z,85.93
2019-05-12T06:02:15.821Z,84.51
2019-05-12T06:04:45.497Z,85.53
2019-05-12T06:07:14.228Z,86.14
2019-05-12T06:09:43.151Z,86.67
2019-05-12T06:12:10.174Z,86.45
2019-05-12T06:14:46.666Z,86.93
2019-05-12T06:17:21.071Z,87.09
2019-05-12T06:19:48.423Z,86.80
2019-05-12T06:22:18.393Z,86.48
2019-05-12T06:24:49.068Z,86.19
2019-05-12T06:27:20.317Z,84.91
2019-05-12T06:29:43.801Z,84.06
2019-05-12T06:32:14.342Z,85.41
2019-05-12T06:34:43.510Z,85.23
2019-05-12T06:37:17.106Z,83.95
2019-05-12T06:39:51.051Z,84.81
2019-05-12T06:42:24.944Z,84.75
2019-05-12T06:47:45.297Z,81.43
2019-05-12T06:50:16.415Z,81.67
2019-05-12T06:52:53.194Z,78.37
2019-05-12T06:55:20.600Z,78.26
2019-05-12T06:57:50.143Z,77.30
2019-05-12T07:00:22.372Z,76.88
2019-05-12T07:02:52.274Z,77.02
2019-05-12T07:05:15.341Z,77.79
2019-05-12T07:07:45.940Z,77.33
2019-05-12T07:10:19.749Z,74.83
2019-05-12T07:12:57.660Z,72.20
2019-05-12T07:15:09.315Z,71.99
2019-05-12T07:17:47.717Z,68.80
2019-05-12T07:20:14.573Z,68.61
2019-05-12T07:22:45.888Z,67.18
2019-05-12T07:25:10.165Z,68.13
2019-05-12T07:27:39.747Z,66.21
2019-05-12T07:30:05.966Z,62.62
2019-05-12T07:32:34.362Z,63.62
2019-05-12T07:35:07.255Z,63.25
2019-05-12T07:37:34.612Z,63.92
2019-05-12T07:40:01.663Z,64.10
2019-05-12T07:42:31.440Z,64.64
2019-05-12T07:44:58.321Z,64.92
2019-05-12T07:47:29.316Z,65.37
2019-05-12T07:49:54.561Z,64.40
2019-05-12T07:52:24.123Z,63.52
2019-05-12T07:54:53.710Z,59.55
2019-05-12T07:57:19.432Z,58.48
2019-05-12T07:59:46.455Z,56.98
2019-05-12T08:02:14.356Z,54.89
2019-05-12T08:04:43.854Z,56.27
2019-05-12T08:07:10.762Z,57.41
2019-05-12T08:09:37.819Z,60.81
2019-05-12T08:12:09.847Z,57.38
2019-05-12T08:14:33.894Z,60.26
2019-05-12T08:17:19.454Z,62.13
2019-05-12T08:22:34.538Z,59.29
2019-05-12T08:25:04.152Z,59.19
2019-05-12T08:27:39.133Z,54.02
2019-05-12T08:32:48.107Z,57.01
2019-05-12T08:35:25.483Z,57.02
2019-05-12T08:37:58.628Z,57.59
2019-05-12T08:43:16.802Z,55.15
2019-05-12T08:45:44.303Z,54.19
2019-05-12T08:48:16.945Z,52.97
2019-05-12T08:50:42.835Z,47.62
2019-05-12T08:53:12.285Z,48.82
2019-05-12T08:55:44.478Z,51.90
2019-05-12T08:58:26.508Z,49.23
2019-05-12T09:00:46.586Z,46.63
2019-05-12T09:03:09.283Z,49.41
2019-05-12T09:05:38.479Z,49.87
2019-05-12T09:08:05.068Z,47.04
2019-05-12T09:10:34.381Z,42.98
2019-05-12T09:13:03.687Z,46.11
2019-05-12T09:15:29.956Z,47.74
2019-05-12T09:17:57.123Z,49.07
2019-05-12T09:20:24.357Z,46.31
2019-05-12T09:23:00.561Z,47.07
2019-05-12T09:25:25.881Z,48.73
2019-05-12T09:27:54.274Z,47.05
2019-05-12T09:30:21.329Z,50.44
2019-05-12T09:32:50.329Z,46.74
2019-05-12T09:35:17.438Z,48.00
2019-05-12T09:37:44.482Z,49.02
2019-05-12T09:40:14.699Z,51.79
2019-05-12T09:45:17.759Z,52.71
2019-05-12T09:47:45.072Z,45.82
2019-05-12T09:50:16.081Z,43.75
2019-05-12T09:52:44.082Z,48.13
2019-05-12T09:55:11.451Z,50.28
2019-05-12T09:57:45.041Z,51.68
2019-05-12T10:00:13.706Z,51.84
2019-05-12T10:02:43.615Z,51.22
2019-05-12T10:05:19.956Z,51.50
2019-05-12T10:07:48.206Z,51.82
2019-05-12T10:10:18.362Z,49.35
2019-05-12T10:18:11.066Z,48.29
2019-05-12T10:20:39.675Z,48.56
2019-05-12T10:23:18.233Z,49.38
2019-05-12T10:25:39.917Z,47.73
2019-05-12T10:28:13.900Z,43.63
2019-05-12T10:30:38.035Z,45.69
2019-05-12T10:33:05.438Z,47.34
2019-05-12T10:35:34.963Z,49.01
2019-05-12T10:38:07.696Z,49.59
2019-05-12T10:40:30.512Z,48.77
2019-05-12T10:42:57.827Z,44.58
2019-05-12T10:45:26.326Z,41.88
2019-05-12T10:47:53.681Z,35.93
2019-05-12T10:50:23.301Z,37.00
2019-05-12T10:55:27.521Z,44.72
2019-05-12T10:58:01.593Z,45.57
2019-05-12T11:00:25.307Z,41.35
2019-05-12T11:02:53.980Z,37.59
2019-05-12T11:05:23.300Z,35.89
2019-05-12T11:07:50.137Z,32.62
2019-05-12T11:10:29.866Z,30.89
2019-05-12T11:12:59.212Z,32.02
2019-05-12T11:15:30.739Z,30.13
2019-05-12T11:17:58.091Z,29.35
2019-05-12T11:20:41.427Z,27.88
2019-05-12T11:23:08.761Z,28.40
2019-05-12T11:25:36.116Z,32.79
2019-05-12T11:28:04.182Z,37.92
2019-05-12T11:30:47.413Z,38.76
2019-05-12T11:33:14.765Z,35.19
2019-05-12T11:35:45.028Z,34.61
2019-05-12T11:38:13.480Z,31.94
2019-05-12T11:40:40.965Z,29.13
2019-05-12T11:43:08.613Z,31.41
2019-05-12T11:45:35.949Z,33.56
2019-05-12T11:48:10.240Z,35.13
2019-05-12T11:50:32.012Z,34.34
2019-05-12T11:52:59.343Z,34.70
2019-05-12T11:55:31.343Z,31.91
2019-05-12T12:03:38.173Z,36.90
2019-05-12T12:06:05.467Z,41.07
2019-05-12T12:08:37.105Z,41.21
2019-05-12T12:11:03.845Z,41.26
2019-05-12T12:13:30.914Z,40.12
2019-05-12T12:16:00.704Z,36.83
2019-05-12T12:18:28.327Z,34.86
2019-05-12T12:21:02.867Z,30.47
2019-05-12T12:23:24.649Z,31.41
2019-05-12T12:25:53.447Z,34.29
2019-05-12T12:28:21.096Z,37.06
2019-05-12T12:30:52.560Z,39.46
2019-05-12T12:33:17.206Z,38.13
2019-05-12T12:35:44.619Z,36.82
2019-05-12T12:38:14.100Z,37.40
2019-05-12T12:40:40.946Z,41.04
2019-05-12T12:43:08.026Z,38.51
2019-05-12T12:45:39.898Z,35.58
2019-05-12T12:48:04.095Z,30.31
2019-05-12T12:50:31.128Z,32.25
2019-05-12T12:52:58.521Z,32.63
2019-05-12T12:55:25.879Z,33.76
2019-05-12T12:57:53.231Z,35.54
2019-05-12T13:00:29.713Z,34.10
2019-05-12T13:02:50.345Z,34.46
2019-05-12T13:05:17.404Z,35.15
2019-05-12T13:07:44.445Z,36.65
2019-05-12T13:10:14.041Z,36.19
2019-05-12T13:12:40.637Z,35.69
2019-05-12T13:15:08.011Z,34.22
2019-05-12T13:17:41.543Z,38.51
2019-05-12T13:20:05.122Z,36.71
2019-05-12T13:22:33.726Z,37.19
2019-05-12T13:25:04.429Z,37.20
2019-05-12T13:27:30.424Z,38.86
2019-05-12T13:29:57.756Z,38.47
2019-05-12T13:32:32.320Z,37.34
2019-05-12T13:34:53.901Z,36.31
2019-05-12T13:37:23.081Z,35.66
2019-05-12T13:39:56.801Z,35.95
2019-05-12T13:43:33.909Z,36.92
2019-05-12T13:46:00.435Z,37.13
2019-05-12T13:48:27.800Z,40.67
2019-05-12T13:51:10.292Z,38.63
2019-05-12T13:53:24.366Z,39.94
2019-05-12T13:55:53.757Z,41.21
2019-05-12T13:58:20.994Z,39.72
2019-05-12T14:01:08.012Z,38.91
2019-05-12T14:03:16.782Z,38.63
2019-05-12T14:05:50.392Z,38.86
2019-05-12T14:08:14.583Z,39.18
2019-05-12T14:10:44.722Z,39.99
2019-05-12T14:13:10.980Z,40.13
2019-05-12T14:15:38.350Z,38.64
2019-05-12T14:18:10.311Z,39.06
2019-05-12T14:20:34.609Z,38.77
2019-05-12T14:23:03.917Z,42.54
2019-05-12T14:25:33.029Z,41.80
2019-05-12T14:28:05.380Z,40.37
2019-05-12T14:30:29.555Z,38.60
2019-05-12T14:32:59.122Z,38.65
2019-05-12T14:35:26.067Z,39.98
2019-05-12T14:37:54.154Z,40.10
2019-05-12T14:40:29.264Z,38.78
2019-05-12T14:42:49.999Z,38.55
2019-05-12T14:45:19.418Z,38.60
2019-05-12T14:47:46.304Z,39.73
2019-05-12T14:50:14.026Z,38.39
2019-05-12T14:52:43.732Z,36.65
2019-05-12T14:55:10.417Z,38.77
2019-05-12T14:57:39.347Z,37.93
2019-05-12T15:00:11.141Z,38.09
2019-05-12T15:02:35.209Z,40.84
2019-05-12T15:05:06.495Z,41.67
2019-05-12T15:07:31.245Z,39.26
2019-05-12T15:10:02.256Z,38.58
2019-05-12T15:12:27.031Z,40.26
2019-05-12T15:15:18.491Z,39.49
2019-05-12T15:17:39.629Z,38.64
2019-05-12T15:20:10.621Z,39.57
2019-05-12T15:22:36.122Z,40.48
2019-05-12T15:25:05.423Z,40.48
2019-05-12T15:27:42.378Z,40.28
2019-05-12T15:30:01.102Z,39.58
2019-05-12T15:32:28.807Z,41.71
2019-05-12T15:34:56.316Z,39.09
2019-05-12T15:37:23.869Z,37.25
2019-05-12T15:39:53.528Z,39.11
2019-05-12T15:42:20.193Z,40.21
2019-05-12T15:44:48.462Z,39.83
2019-05-12T15:47:15.817Z,37.49
2019-05-12T15:49:44.230Z,37.94
2019-05-12T15:52:14.034Z,38.77
2019-05-12T15:54:45.699Z,39.35
2019-05-12T15:57:09.248Z,39.20
2019-05-12T15:59:36.626Z,39.18
2019-05-12T16:02:12.417Z,37.50
2019-05-12T16:04:42.706Z,39.27
2019-05-12T16:07:04.109Z,40.67
2019-05-12T16:09:31.540Z,38.34
2019-05-12T16:11:58.892Z,38.66
2019-05-12T16:14:30.345Z,40.19
2019-05-12T16:16:54.671Z,39.01
2019-05-12T16:19:23.456Z,39.62
2019-05-12T16:21:50.754Z,40.19
2019-05-12T16:24:17.791Z,37.69
2019-05-12T16:26:51.701Z,37.53
2019-05-12T16:29:13.929Z,37.57
2019-05-12T16:31:47.887Z,36.23
2019-05-12T16:34:10.435Z,36.88
2019-05-12T16:36:41.170Z,36.83
2019-05-12T16:39:07.784Z,37.57
2019-05-12T16:41:35.243Z,38.50
2019-05-12T16:44:07.833Z,39.41
2019-05-12T16:46:31.040Z,39.69
2019-05-12T16:49:08.498Z,38.67
2019-05-12T16:59:21.947Z,37.90
2019-05-12T17:01:51.201Z,38.59
2019-05-12T17:07:18.896Z,38.97
2019-05-12T17:09:45.382Z,38.88
2019-05-12T17:12:17.129Z,38.62
2019-05-12T17:14:50.054Z,38.71
2019-05-12T17:17:21.515Z,38.94
2019-05-12T17:19:54.102Z,38.84
2019-05-12T17:27:51.642Z,39.71
2019-05-12T17:30:23.853Z,40.18
2019-05-12T17:33:00.708Z,39.28
2019-05-12T17:35:34.182Z,39.94
2019-05-12T17:38:05.640Z,41.36
2019-05-12T17:40:58.901Z,40.85
2019-05-12T17:43:20.233Z,40.63
2019-05-12T17:48:58.748Z,40.69
2019-05-12T17:51:48.088Z,41.03
2019-05-12T17:54:24.322Z,41.70
2019-05-12T17:59:41.949Z,41.82
2019-05-12T18:02:16.685Z,41.36
2019-05-12T18:04:43.782Z,40.98
2019-05-12T18:07:14.422Z,41.80
2019-05-12T18:09:45.106Z,41.30
2019-05-12T18:14:54.533Z,41.63
2019-05-12T18:17:24.037Z,42.33
2019-05-12T18:22:47.143Z,42.41
2019-05-12T18:25:30.360Z,43.41
2019-05-12T18:30:34.883Z,43.82
2019-05-12T18:35:34.557Z,43.35
2019-05-12T18:38:07.980Z,44.04
2019-05-12T18:40:35.081Z,44.00
2019-05-12T18:53:43.836Z,45.73
2019-05-12T18:56:29.960Z,45.62
2019-05-12T19:01:40.578Z,46.56
2019-05-12T19:04:07.901Z,47.42
2019-05-12T19:06:38.430Z,47.62
2019-05-12T19:11:46.368Z,47.47
2019-05-12T19:19:39.780Z,48.21
2019-05-12T19:22:09.756Z,48.31
2019-05-12T19:24:36.432Z,48.53
2019-05-12T19:27:16.636Z,48.75
2019-05-12T19:29:48.329Z,49.21
2019-05-12T19:32:28.102Z,49.47
2019-05-12T19:37:45.331Z,50.47
2019-05-12T19:40:18.420Z,50.09
2019-05-12T19:45:33.671Z,50.77
2019-05-12T19:48:00.228Z,51.18
2019-05-12T19:50:28.423Z,51.37
2019-05-12T19:52:55.749Z,51.73
2019-05-12T19:55:24.111Z,52.05
2019-05-12T19:57:51.242Z,52.23
2019-05-12T20:00:18.516Z,52.16
2019-05-12T20:02:45.867Z,51.93
2019-05-12T20:05:17.219Z,52.27
2019-05-12T20:07:41.648Z,51.93
2019-05-12T20:10:12.285Z,51.99
2019-05-12T20:15:30.215Z,51.30
2019-05-12T20:17:58.288Z,51.50
2019-05-12T20:20:35.225Z,51.48
2019-05-12T20:22:54.432Z,51.66
2019-05-12T20:25:23.488Z,51.30
2019-05-12T20:27:55.843Z,52.16
2019-05-12T20:30:21.119Z,52.04
2019-05-12T20:32:48.294Z,52.42
2019-05-12T20:35:15.396Z,52.71
2019-05-12T20:37:44.241Z,52.57
2019-05-12T20:40:13.420Z,52.67
2019-05-12T20:42:44.215Z,52.67
2019-05-12T20:45:08.648Z,53.01
2019-05-12T20:47:39.152Z,52.79
2019-05-12T20:50:04.514Z,52.76
2019-05-12T20:52:31.534Z,52.71
2019-05-12T20:54:59.941Z,53.18
2019-05-12T20:57:27.147Z,53.16
2019-05-12T20:59:58.299Z,53.74
2019-05-12T21:02:23.470Z,53.37
2019-05-12T21:05:00.583Z,54.05
2019-05-12T21:07:21.951Z,54.07
2019-05-12T21:09:48.294Z,54.36
2019-05-12T21:12:15.341Z,55.45
2019-05-12T21:14:51.166Z,55.23
2019-05-12T21:17:15.782Z,55.25
2019-05-12T21:19:41.544Z,55.53
2019-05-12T21:22:09.170Z,55.81
2019-05-12T21:24:39.319Z,56.24
2019-05-12T21:27:09.418Z,56.13
2019-05-12T21:29:34.757Z,56.29
2019-05-12T21:32:02.975Z,56.37
2019-05-12T21:34:30.762Z,56.96
2019-05-12T21:36:58.964Z,56.65
2019-05-12T21:39:26.835Z,56.64
2019-05-12T21:41:54.888Z,56.68
2019-05-12T21:44:24.581Z,56.86
2019-05-12T21:46:58.777Z,57.15
2019-05-12T21:49:20.782Z,56.86
2019-05-12T21:51:50.479Z,56.79
2019-05-12T21:54:16.557Z,57.31
2019-05-12T21:56:49.170Z,57.58
2019-05-12T21:59:15.518Z,57.88
2019-05-12T22:01:43.389Z,58.00
2019-05-12T22:04:10.395Z,58.20
2019-05-12T22:06:37.441Z,58.44
2019-05-12T22:09:04.710Z,58.48
2019-05-12T22:11:34.391Z,58.46
2019-05-12T22:14:00.833Z,59.28
2019-05-12T22:16:29.621Z,59.35
2019-05-12T22:18:59.381Z,60.13
2019-05-12T22:21:25.962Z,59.80
2019-05-12T22:23:54.208Z,59.78
2019-05-12T22:26:22.007Z,60.08
2019-05-12T22:28:51.042Z,59.56
2019-05-12T22:31:18.047Z,58.90
2019-05-12T22:33:51.629Z,58.91
2019-05-12T22:36:25.771Z,59.63
2019-05-12T22:38:44.404Z,59.51
2019-05-12T22:41:13.543Z,59.59
2019-05-12T22:43:43.482Z,59.62
2019-05-12T22:46:09.997Z,59.74
2019-05-12T22:48:40.481Z,59.74
2019-05-12T22:51:14.332Z,60.51
2019-05-12T22:53:34.794Z,60.56
2019-05-12T22:56:11.643Z,60.44
2019-05-12T22:58:30.888Z,60.40
2019-05-12T23:01:00.988Z,60.12
2019-05-12T23:03:26.918Z,60.20
2019-05-12T23:06:00.066Z,59.96
2019-05-12T23:08:24.667Z,60.28
2019-05-12T23:10:53.973Z,60.31
2019-05-12T23:13:23.798Z,60.36
2019-05-12T23:15:51.628Z,60.72
2019-05-12T23:18:19.526Z,60.77
2019-05-12T23:20:48.863Z,61.06
2019-05-12T23:23:18.781Z,60.95
2019-05-12T23:25:44.634Z,60.80
2019-05-12T23:28:11.678Z,60.73
2019-05-12T23:30:43.782Z,60.91
2019-05-12T23:33:07.442Z,61.13
2019-05-12T23:35:39.485Z,61.24
2019-05-12T23:38:04.419Z,61.32
2019-05-12T23:40:34.264Z,61.28
2019-05-12T23:43:00.668Z,61.62
2019-05-12T23:45:27.698Z,61.91
2019-05-12T23:47:54.744Z,61.94
2019-05-12T23:50:24.148Z,61.26
2019-05-12T23:52:51.038Z,61.82
2019-05-12T23:55:18.310Z,61.43
2019-05-12T23:57:45.377Z,61.59
